sensor_id;sensor_type;location;lat;lon;timestamp;pressure;altitude;pressure_sealevel;temperature;humidity
42725;BME280;28369;44.046;23.014;2023-03-01T00:01:27;102047.28;;;10.40;69.37
42725;BME280;28369;44.046;23.014;2023-03-01T00:03:53;101917.84;;;9.63;68.87
42725;BME280;28369;44.046;23.014;2023-03-01T00:06:19;102080.72;;;10.52;69.03
42725;BME280;28369;44.046;23.014;2023-03-01T00:08:45;102199.69;;;11.15;69.38
42725;BME280;28369;44.046;23.014;2023-03-01T00:11:16;102072.00;;;10.52;69.30
42725;BME280;28369;44.046;23.014;2023-03-01T00:13:46;102166.59;;;11.11;69.07
42725;BME280;28369;44.046;23.014;2023-03-01T00:16:17;102199.22;;;11.37;68.77
42725;BME280;28369;44.046;23.014;2023-03-01T00:18:43;102131.56;;;10.82;68.88
42725;BME280;28369;44.046;23.014;2023-03-01T00:21:09;102079.31;;;10.61;69.09
42725;BME280;28369;44.046;23.014;2023-03-01T00:23:35;102211.38;;;11.53;68.94
42725;BME280;28369;44.046;23.014;2023-03-01T00:26:00;102228.56;;;11.73;68.74
42725;BME280;28369;44.046;23.014;2023-03-01T00:28:26;102134.47;;;11.06;68.71
42725;BME280;28369;44.046;23.014;2023-03-01T00:30:52;102028.59;;;10.59;68.33
42725;BME280;28369;44.046;23.014;2023-03-01T00:33:18;102057.97;;;10.66;68.58
42725;BME280;28369;44.046;23.014;2023-03-01T00:35:44;102002.19;;;10.32;68.65
42725;BME280;28369;44.046;23.014;2023-03-01T00:38:09;102218.31;;;11.68;68.79
42725;BME280;28369;44.046;23.014;2023-03-01T00:40:35;102171.44;;;11.46;68.61
42725;BME280;28369;44.046;23.014;2023-03-01T00:43:01;102194.38;;;11.44;68.98
42725;BME280;28369;44.046;23.014;2023-03-01T00:45:28;102170.38;;;11.49;68.36
42725;BME280;28369;44.046;23.014;2023-03-01T00:47:54;102217.56;;;11.81;68.14
42725;BME280;28369;44.046;23.014;2023-03-01T00:50:20;102088.31;;;11.00;68.87
42725;BME280;28369;44.046;23.014;2023-03-01T00:52:45;102160.66;;;11.36;69.07
42725;BME280;28369;44.046;23.014;2023-03-01T00:55:11;102183.38;;;11.52;68.98
42725;BME280;28369;44.046;23.014;2023-03-01T00:57:37;102149.75;;;11.28;69.08
42725;BME280;28369;44.046;23.014;2023-03-01T01:00:06;102046.59;;;10.80;69.31
42725;BME280;28369;44.046;23.014;2023-03-01T01:02:33;102191.09;;;11.55;69.29
42725;BME280;28369;44.046;23.014;2023-03-01T01:04:59;102039.56;;;10.80;68.82
42725;BME280;28369;44.046;23.014;2023-03-01T01:07:25;102172.56;;;11.42;68.87
42725;BME280;28369;44.046;23.014;2023-03-01T01:09:50;102138.91;;;11.33;69.19
42725;BME280;28369;44.046;23.014;2023-03-01T01:12:16;102181.94;;;11.61;69.11
42725;BME280;28369;44.046;23.014;2023-03-01T01:14:41;102086.50;;;11.15;68.26
42725;BME280;28369;44.046;23.014;2023-03-01T01:17:08;102184.84;;;11.70;68.73
42725;BME280;28369;44.046;23.014;2023-03-01T01:19:34;102170.31;;;11.78;68.69
42725;BME280;28369;44.046;23.014;2023-03-01T01:22:00;102171.41;;;11.61;69.44
42725;BME280;28369;44.046;23.014;2023-03-01T01:24:25;102133.66;;;11.60;68.70
42725;BME280;28369;44.046;23.014;2023-03-01T01:26:51;102167.00;;;11.47;69.16
42725;BME280;28369;44.046;23.014;2023-03-01T01:29:16;102066.78;;;10.94;68.80
42725;BME280;28369;44.046;23.014;2023-03-01T01:31:42;102083.75;;;11.17;68.84
42725;BME280;28369;44.046;23.014;2023-03-01T01:34:20;102137.16;;;11.61;68.90
42725;BME280;28369;44.046;23.014;2023-03-01T01:36:53;102077.53;;;11.32;68.53
42725;BME280;28369;44.046;23.014;2023-03-01T01:39:20;102160.56;;;11.92;68.41
42725;BME280;28369;44.046;23.014;2023-03-01T01:41:45;102030.50;;;10.99;68.75
42725;BME280;28369;44.046;23.014;2023-03-01T01:44:25;102135.81;;;11.68;68.44
42725;BME280;28369;44.046;23.014;2023-03-01T01:47:05;102001.25;;;10.76;68.55
42725;BME280;28369;44.046;23.014;2023-03-01T01:49:41;102157.94;;;11.65;69.01
42725;BME280;28369;44.046;23.014;2023-03-01T01:52:18;102013.19;;;10.67;69.01
42725;BME280;28369;44.046;23.014;2023-03-01T01:55:14;102174.56;;;11.66;69.54
42725;BME280;28369;44.046;23.014;2023-03-01T01:58:08;102175.72;;;11.62;69.74
42725;BME280;28369;44.046;23.014;2023-03-01T02:00:34;101999.47;;;10.62;69.55
42725;BME280;28369;44.046;23.014;2023-03-01T02:03:03;102168.97;;;11.85;69.23
42725;BME280;28369;44.046;23.014;2023-03-01T02:05:38;102168.56;;;11.91;68.91
42725;BME280;28369;44.046;23.014;2023-03-01T02:08:05;102148.47;;;11.75;68.74
42725;BME280;28369;44.046;23.014;2023-03-01T02:10:33;102112.84;;;11.43;69.17
42725;BME280;28369;44.046;23.014;2023-03-01T02:13:00;102150.66;;;11.69;69.11
42725;BME280;28369;44.046;23.014;2023-03-01T02:15:26;102130.28;;;11.58;69.33
42725;BME280;28369;44.046;23.014;2023-03-01T02:17:53;102181.81;;;11.76;69.34
42725;BME280;28369;44.046;23.014;2023-03-01T02:20:40;101999.16;;;10.81;68.97
42725;BME280;28369;44.046;23.014;2023-03-01T02:23:10;102122.41;;;11.58;69.02
42725;BME280;28369;44.046;23.014;2023-03-01T02:26:01;102062.53;;;11.05;69.53
42725;BME280;28369;44.046;23.014;2023-03-01T02:28:47;102141.59;;;11.46;69.90
42725;BME280;28369;44.046;23.014;2023-03-01T02:31:18;101988.75;;;10.65;69.54
42725;BME280;28369;44.046;23.014;2023-03-01T02:34:03;101992.50;;;10.76;69.35
42725;BME280;28369;44.046;23.014;2023-03-01T02:39:48;102131.03;;;11.60;69.40
42725;BME280;28369;44.046;23.014;2023-03-01T02:42:21;101930.00;;;10.52;69.11
42725;BME280;28369;44.046;23.014;2023-03-01T02:44:49;102120.38;;;11.76;68.60
42725;BME280;28369;44.046;23.014;2023-03-01T02:47:15;102126.16;;;11.54;68.88
42725;BME280;28369;44.046;23.014;2023-03-01T02:49:40;101910.03;;;10.35;68.71
42725;BME280;28369;44.046;23.014;2023-03-01T02:55:14;102012.50;;;10.78;69.39
42725;BME280;28369;44.046;23.014;2023-03-01T02:57:43;101994.72;;;10.54;70.04
42725;BME280;28369;44.046;23.014;2023-03-01T03:00:11;102124.97;;;11.45;70.04
42725;BME280;28369;44.046;23.014;2023-03-01T03:06:05;102150.91;;;11.51;69.90
42725;BME280;28369;44.046;23.014;2023-03-01T03:08:31;102115.75;;;11.52;69.35
42725;BME280;28369;44.046;23.014;2023-03-01T03:10:56;102133.81;;;11.44;69.87
42725;BME280;28369;44.046;23.014;2023-03-01T03:13:22;102140.84;;;11.58;69.39
42725;BME280;28369;44.046;23.014;2023-03-01T03:15:52;102126.69;;;11.46;70.08
42725;BME280;28369;44.046;23.014;2023-03-01T03:21:40;102116.25;;;11.30;70.25
42725;BME280;28369;44.046;23.014;2023-03-01T03:24:06;102108.50;;;11.41;69.95
42725;BME280;28369;44.046;23.014;2023-03-01T03:26:32;102095.81;;;11.48;69.67
42725;BME280;28369;44.046;23.014;2023-03-01T03:28:57;102113.19;;;11.51;70.10
42725;BME280;28369;44.046;23.014;2023-03-01T03:31:24;101985.97;;;10.40;70.50
42725;BME280;28369;44.046;23.014;2023-03-01T03:33:50;102018.66;;;10.92;70.11
42725;BME280;28369;44.046;23.014;2023-03-01T03:36:17;102090.59;;;11.34;69.79
42725;BME280;28369;44.046;23.014;2023-03-01T03:38:43;102113.31;;;11.49;70.07
42725;BME280;28369;44.046;23.014;2023-03-01T03:41:08;102117.97;;;11.58;69.75
42725;BME280;28369;44.046;23.014;2023-03-01T03:43:36;102102.47;;;11.12;70.04
42725;BME280;28369;44.046;23.014;2023-03-01T03:46:03;101974.72;;;10.37;70.46
42725;BME280;28369;44.046;23.014;2023-03-01T03:48:34;102072.72;;;10.83;70.99
42725;BME280;28369;44.046;23.014;2023-03-01T03:51:00;102079.66;;;10.98;70.81
42725;BME280;28369;44.046;23.014;2023-03-01T03:53:27;102101.28;;;11.03;70.66
42725;BME280;28369;44.046;23.014;2023-03-01T03:55:54;102022.28;;;10.76;70.32
42725;BME280;28369;44.046;23.014;2023-03-01T03:58:22;102105.19;;;11.25;70.33
42725;BME280;28369;44.046;23.014;2023-03-01T04:00:50;102089.84;;;11.17;70.38
42725;BME280;28369;44.046;23.014;2023-03-01T04:03:17;102083.97;;;11.14;70.34
42725;BME280;28369;44.046;23.014;2023-03-01T04:05:44;102116.94;;;11.19;70.65
42725;BME280;28369;44.046;23.014;2023-03-01T04:08:09;102120.69;;;11.30;70.48
42725;BME280;28369;44.046;23.014;2023-03-01T04:10:40;102014.84;;;10.68;70.48
42725;BME280;28369;44.046;23.014;2023-03-01T04:13:08;102122.38;;;11.31;70.32
42725;BME280;28369;44.046;23.014;2023-03-01T04:15:34;102052.03;;;10.91;70.52
42725;BME280;28369;44.046;23.014;2023-03-01T04:18:01;101914.72;;;9.86;71.39
42725;BME280;28369;44.046;23.014;2023-03-01T04:20:29;102100.06;;;11.09;71.24
42725;BME280;28369;44.046;23.014;2023-03-01T04:25:45;102068.09;;;11.01;70.92
42725;BME280;28369;44.046;23.014;2023-03-01T04:28:40;102133.13;;;11.28;71.38
42725;BME280;28369;44.046;23.014;2023-03-01T04:31:15;102076.84;;;10.87;71.80
42725;BME280;28369;44.046;23.014;2023-03-01T04:33:45;102091.41;;;10.93;72.16
42725;BME280;28369;44.046;23.014;2023-03-01T04:36:12;101982.22;;;10.44;71.10
42725;BME280;28369;44.046;23.014;2023-03-01T04:38:38;101975.13;;;10.30;71.52
42725;BME280;28369;44.046;23.014;2023-03-01T04:41:06;102129.00;;;11.09;72.46
42725;BME280;28369;44.046;23.014;2023-03-01T04:43:32;102079.47;;;10.87;72.22
42725;BME280;28369;44.046;23.014;2023-03-01T04:46:11;102102.69;;;10.95;72.80
42725;BME280;28369;44.046;23.014;2023-03-01T04:48:38;102099.97;;;10.96;71.92
42725;BME280;28369;44.046;23.014;2023-03-01T04:51:04;102107.88;;;10.96;72.33
42725;BME280;28369;44.046;23.014;2023-03-01T04:53:31;101985.34;;;10.36;71.88
42725;BME280;28369;44.046;23.014;2023-03-01T04:55:57;101998.81;;;10.59;71.72
42725;BME280;28369;44.046;23.014;2023-03-01T04:58:24;102120.16;;;11.24;71.63
42725;BME280;28369;44.046;23.014;2023-03-01T05:00:50;102056.94;;;10.83;71.75
42725;BME280;28369;44.046;23.014;2023-03-01T05:03:15;102080.97;;;10.91;71.77
42725;BME280;28369;44.046;23.014;2023-03-01T05:05:44;102084.28;;;10.95;72.03
42725;BME280;28369;44.046;23.014;2023-03-01T05:08:10;102098.84;;;11.00;71.55
42725;BME280;28369;44.046;23.014;2023-03-01T05:10:52;102085.13;;;10.95;71.69
42725;BME280;28369;44.046;23.014;2023-03-01T05:13:19;102132.84;;;11.18;71.75
42725;BME280;28369;44.046;23.014;2023-03-01T05:15:57;102126.91;;;11.14;71.86
42725;BME280;28369;44.046;23.014;2023-03-01T05:18:24;102090.88;;;10.87;71.82
42725;BME280;28369;44.046;23.014;2023-03-01T05:20:54;102093.28;;;11.05;71.42
42725;BME280;28369;44.046;23.014;2023-03-01T05:23:22;102007.06;;;10.67;70.96
42725;BME280;28369;44.046;23.014;2023-03-01T05:25:48;102079.56;;;10.85;71.40
42725;BME280;28369;44.046;23.014;2023-03-01T05:28:14;102066.16;;;10.61;72.23
42725;BME280;28369;44.046;23.014;2023-03-01T05:30:40;102032.16;;;10.44;72.22
42725;BME280;28369;44.046;23.014;2023-03-01T05:33:07;102087.47;;;10.71;72.63
42725;BME280;28369;44.046;23.014;2023-03-01T05:35:39;101972.47;;;9.72;73.38
42725;BME280;28369;44.046;23.014;2023-03-01T05:38:05;102126.66;;;10.90;73.09
42725;BME280;28369;44.046;23.014;2023-03-01T05:40:33;102051.06;;;10.50;72.82
42725;BME280;28369;44.046;23.014;2023-03-01T05:42:58;102101.22;;;10.62;72.96
42725;BME280;28369;44.046;23.014;2023-03-01T05:45:25;102103.63;;;10.50;72.95
42725;BME280;28369;44.046;23.014;2023-03-01T05:47:52;102007.16;;;10.22;72.67
42725;BME280;28369;44.046;23.014;2023-03-01T05:50:20;101999.53;;;10.03;73.58
42725;BME280;28369;44.046;23.014;2023-03-01T05:52:47;102018.34;;;10.40;72.17
42725;BME280;28369;44.046;23.014;2023-03-01T05:55:15;102055.72;;;10.60;72.12
42725;BME280;28369;44.046;23.014;2023-03-01T05:57:40;102085.69;;;10.86;71.82
42725;BME280;28369;44.046;23.014;2023-03-01T06:00:06;102118.81;;;11.17;71.58
42725;BME280;28369;44.046;23.014;2023-03-01T06:02:32;102014.25;;;10.50;71.01
42725;BME280;28369;44.046;23.014;2023-03-01T06:04:57;101992.31;;;10.21;71.49
42725;BME280;28369;44.046;23.014;2023-03-01T06:07:23;101961.34;;;10.12;71.34
42725;BME280;28369;44.046;23.014;2023-03-01T06:09:48;102127.94;;;11.12;71.41
42725;BME280;28369;44.046;23.014;2023-03-01T06:12:14;102094.25;;;10.89;71.24
42725;BME280;28369;44.046;23.014;2023-03-01T06:14:39;102097.16;;;10.99;71.23
42725;BME280;28369;44.046;23.014;2023-03-01T06:17:05;102118.38;;;11.11;71.23
42725;BME280;28369;44.046;23.014;2023-03-01T06:19:30;101983.69;;;10.05;71.74
42725;BME280;28369;44.046;23.014;2023-03-01T06:21:55;102095.25;;;11.01;70.98
42725;BME280;28369;44.046;23.014;2023-03-01T06:24:21;102085.28;;;11.06;70.72
42725;BME280;28369;44.046;23.014;2023-03-01T06:26:46;102111.06;;;10.87;70.87
42725;BME280;28369;44.046;23.014;2023-03-01T06:29:12;101951.00;;;9.94;71.34
42725;BME280;28369;44.046;23.014;2023-03-01T06:31:37;101914.88;;;9.69;71.79
42725;BME280;28369;44.046;23.014;2023-03-01T06:34:03;102135.31;;;10.92;72.36
42725;BME280;28369;44.046;23.014;2023-03-01T06:36:28;101916.03;;;9.94;70.82
42725;BME280;28369;44.046;23.014;2023-03-01T06:38:54;101854.09;;;9.61;70.53
42725;BME280;28369;44.046;23.014;2023-03-01T06:41:19;102134.16;;;11.11;71.58
42725;BME280;28369;44.046;23.014;2023-03-01T06:43:44;101954.69;;;10.06;71.00
42725;BME280;28369;44.046;23.014;2023-03-01T06:46:10;101973.72;;;10.24;70.65
42725;BME280;28369;44.046;23.014;2023-03-01T06:48:35;102101.91;;;11.07;70.35
42725;BME280;28369;44.046;23.014;2023-03-01T06:51:01;102150.13;;;11.22;71.05
42725;BME280;28369;44.046;23.014;2023-03-01T06:53:28;102117.78;;;11.20;70.18
42725;BME280;28369;44.046;23.014;2023-03-01T06:55:57;102055.63;;;10.76;70.44
42725;BME280;28369;44.046;23.014;2023-03-01T06:58:25;102104.91;;;11.15;70.07
42725;BME280;28369;44.046;23.014;2023-03-01T07:00:50;102073.38;;;10.86;70.08
42725;BME280;28369;44.046;23.014;2023-03-01T07:03:16;102160.81;;;11.48;69.87
42725;BME280;28369;44.046;23.014;2023-03-01T07:05:42;102020.50;;;10.33;70.53
42725;BME280;28369;44.046;23.014;2023-03-01T07:08:07;102159.56;;;11.53;69.94
42725;BME280;28369;44.046;23.014;2023-03-01T07:10:33;102139.88;;;11.32;69.70
42725;BME280;28369;44.046;23.014;2023-03-01T07:12:59;102148.47;;;11.48;69.62
42725;BME280;28369;44.046;23.014;2023-03-01T07:15:25;102164.38;;;11.47;70.16
42725;BME280;28369;44.046;23.014;2023-03-01T07:17:51;102119.69;;;11.18;70.00
42725;BME280;28369;44.046;23.014;2023-03-01T07:20:18;102119.59;;;11.47;69.02
42725;BME280;28369;44.046;23.014;2023-03-01T07:22:44;102112.41;;;11.21;69.48
42725;BME280;28369;44.046;23.014;2023-03-01T07:25:10;102020.00;;;10.84;68.52
42725;BME280;28369;44.046;23.014;2023-03-01T07:27:36;101867.03;;;10.07;68.04
42725;BME280;28369;44.046;23.014;2023-03-01T07:30:02;102099.97;;;11.38;68.63
42725;BME280;28369;44.046;23.014;2023-03-01T07:32:28;102101.88;;;11.21;69.30
42725;BME280;28369;44.046;23.014;2023-03-01T07:34:54;102108.38;;;11.16;69.36
42725;BME280;28369;44.046;23.014;2023-03-01T07:37:19;102138.56;;;11.24;70.17
42725;BME280;28369;44.046;23.014;2023-03-01T07:39:45;102013.13;;;10.54;69.72
42725;BME280;28369;44.046;23.014;2023-03-01T07:42:11;102139.81;;;11.61;69.72
42725;BME280;28369;44.046;23.014;2023-03-01T07:44:36;102155.53;;;11.48;69.87
42725;BME280;28369;44.046;23.014;2023-03-01T07:47:03;102016.56;;;10.69;69.95
42725;BME280;28369;44.046;23.014;2023-03-01T07:49:29;102121.66;;;11.14;70.41
42725;BME280;28369;44.046;23.014;2023-03-01T07:51:54;102162.72;;;11.17;71.15
42725;BME280;28369;44.046;23.014;2023-03-01T07:54:20;101995.56;;;10.41;71.44
42725;BME280;28369;44.046;23.014;2023-03-01T08:00:10;102112.88;;;11.28;70.24
42725;BME280;28369;44.046;23.014;2023-03-01T08:02:36;102104.19;;;10.99;71.23
42725;BME280;28369;44.046;23.014;2023-03-01T08:05:02;102086.63;;;10.85;71.07
42725;BME280;28369;44.046;23.014;2023-03-01T08:07:28;102130.66;;;11.10;70.17
42725;BME280;28369;44.046;23.014;2023-03-01T08:09:53;102001.53;;;10.57;70.13
42725;BME280;28369;44.046;23.014;2023-03-01T08:12:19;102140.84;;;11.02;71.18
42725;BME280;28369;44.046;23.014;2023-03-01T08:14:44;101975.41;;;9.96;70.62
42725;BME280;28369;44.046;23.014;2023-03-01T08:17:10;102027.19;;;10.53;69.81
42725;BME280;28369;44.046;23.014;2023-03-01T08:19:35;101989.22;;;10.14;70.74
42725;BME280;28369;44.046;23.014;2023-03-01T08:22:02;101999.69;;;10.59;69.71
42725;BME280;28369;44.046;23.014;2023-03-01T08:24:28;102104.16;;;11.28;69.47
42725;BME280;28369;44.046;23.014;2023-03-01T08:26:54;102162.16;;;11.68;69.09
42725;BME280;28369;44.046;23.014;2023-03-01T08:29:20;101990.28;;;10.41;69.62
42725;BME280;28369;44.046;23.014;2023-03-01T08:31:46;102148.63;;;11.59;69.06
42725;BME280;28369;44.046;23.014;2023-03-01T08:34:14;102101.53;;;11.28;69.06
42725;BME280;28369;44.046;23.014;2023-03-01T08:36:43;102150.66;;;11.69;68.81
42725;BME280;28369;44.046;23.014;2023-03-01T08:39:11;102033.28;;;11.10;68.46
42725;BME280;28369;44.046;23.014;2023-03-01T08:41:37;102107.94;;;11.51;68.52
42725;BME280;28369;44.046;23.014;2023-03-01T08:44:03;102007.66;;;10.58;69.02
42725;BME280;28369;44.046;23.014;2023-03-01T08:46:31;101988.44;;;10.84;68.94
42725;BME280;28369;44.046;23.014;2023-03-01T08:48:57;102020.25;;;10.94;69.04
42725;BME280;28369;44.046;23.014;2023-03-01T08:51:23;102113.94;;;11.53;69.00
42725;BME280;28369;44.046;23.014;2023-03-01T08:53:49;102076.75;;;11.30;68.88
